sensor_id;sensor_type;location;lat;lon;timestamp;pressure;altitude;pressure_sealevel;temperature;humidity
28921;BME280;16035;53.594;9.952;2023-07-29T00:00:15;100586.75;;;19.34;74.42
28921;BME280;16035;53.594;9.952;2023-07-29T00:02:16;100586.56;;;19.30;74.45
28921;BME280;16035;53.594;9.952;2023-07-29T00:04:16;100587.53;;;19.26;74.37
28921;BME280;16035;53.594;9.952;2023-07-29T00:06:17;100588.69;;;19.25;74.23
28921;BME280;16035;53.594;9.952;2023-07-29T00:08:17;100585.44;;;19.23;74.20
28921;BME280;16035;53.594;9.952;2023-07-29T00:10:17;100584.13;;;19.20;74.35
28921;BME280;16035;53.594;9.952;2023-07-29T00:12:18;100583.16;;;19.16;74.46
28921;BME280;16035;53.594;9.952;2023-07-29T00:14:18;100582.19;;;19.12;74.37
28921;BME280;16035;53.594;9.952;2023-07-29T00:16:19;100579.72;;;19.10;74.55
28921;BME280;16035;53.594;9.952;2023-07-29T00:18:22;100576.84;;;19.07;74.63
28921;BME280;16035;53.594;9.952;2023-07-29T00:20:23;100580.22;;;19.04;74.45
28921;BME280;16035;53.594;9.952;2023-07-29T00:22:24;100575.34;;;19.01;74.69
28921;BME280;16035;53.594;9.952;2023-07-29T00:24:24;100583.94;;;18.99;74.39
28921;BME280;16035;53.594;9.952;2023-07-29T00:26:25;100576.81;;;18.98;74.68
28921;BME280;16035;53.594;9.952;2023-07-29T00:28:26;100573.91;;;18.94;74.52
28921;BME280;16035;53.594;9.952;2023-07-29T00:30:26;100564.81;;;18.94;74.59
28921;BME280;16035;53.594;9.952;2023-07-29T00:32:28;100578.59;;;18.94;74.78
28921;BME280;16035;53.594;9.952;2023-07-29T00:34:29;100569.00;;;18.91;74.89
28921;BME280;16035;53.594;9.952;2023-07-29T00:36:30;100558.34;;;18.90;75.04
28921;BME280;16035;53.594;9.952;2023-07-29T00:38:31;100553.13;;;18.88;74.73
28921;BME280;16035;53.594;9.952;2023-07-29T00:40:35;100563.66;;;18.86;75.10
28921;BME280;16035;53.594;9.952;2023-07-29T00:42:35;100555.22;;;18.83;74.83
28921;BME280;16035;53.594;9.952;2023-07-29T00:44:36;100556.84;;;18.84;74.74
28921;BME280;16035;53.594;9.952;2023-07-29T00:46:38;100552.81;;;18.81;74.93
28921;BME280;16035;53.594;9.952;2023-07-29T00:48:40;100548.44;;;18.80;74.97
28921;BME280;16035;53.594;9.952;2023-07-29T00:50:40;100536.63;;;18.80;74.82
28921;BME280;16035;53.594;9.952;2023-07-29T00:52:41;100543.25;;;18.79;74.96
28921;BME280;16035;53.594;9.952;2023-07-29T00:54:42;100539.69;;;18.78;75.03
28921;BME280;16035;53.594;9.952;2023-07-29T00:56:42;100536.44;;;18.76;74.97
28921;BME280;16035;53.594;9.952;2023-07-29T00:58:43;100541.16;;;18.76;75.14
28921;BME280;16035;53.594;9.952;2023-07-29T01:00:43;100543.91;;;18.76;74.86
28921;BME280;16035;53.594;9.952;2023-07-29T01:02:44;100534.50;;;18.77;75.55
28921;BME280;16035;53.594;9.952;2023-07-29T01:04:44;100523.50;;;18.77;75.28
28921;BME280;16035;53.594;9.952;2023-07-29T01:06:57;100528.19;;;18.76;75.57
28921;BME280;16035;53.594;9.952;2023-07-29T01:09:04;100530.94;;;18.76;75.52
28921;BME280;16035;53.594;9.952;2023-07-29T01:11:27;100527.38;;;18.76;75.55
28921;BME280;16035;53.594;9.952;2023-07-29T01:13:44;100529.00;;;18.77;75.60
28921;BME280;16035;53.594;9.952;2023-07-29T01:16:15;100522.69;;;18.76;75.83
28921;BME280;16035;53.594;9.952;2023-07-29T01:18:26;100523.50;;;18.77;75.67
28921;BME280;16035;53.594;9.952;2023-07-29T01:20:27;100523.50;;;18.77;75.61
28921;BME280;16035;53.594;9.952;2023-07-29T01:22:29;100516.50;;;18.79;75.44
28921;BME280;16035;53.594;9.952;2023-07-29T01:24:31;100512.66;;;18.80;75.73
28921;BME280;16035;53.594;9.952;2023-07-29T01:26:31;100510.72;;;18.81;75.77
28921;BME280;16035;53.594;9.952;2023-07-29T01:28:32;100511.50;;;18.81;75.73
28921;BME280;16035;53.594;9.952;2023-07-29T01:30:38;100516.22;;;18.81;75.80
28921;BME280;16035;53.594;9.952;2023-07-29T01:34:53;100520.59;;;18.82;75.71
28921;BME280;16035;53.594;9.952;2023-07-29T01:36:57;100524.94;;;18.83;75.60
28921;BME280;16035;53.594;9.952;2023-07-29T01:39:01;100523.81;;;18.84;75.64
28921;BME280;16035;53.594;9.952;2023-07-29T01:41:02;100529.31;;;18.84;75.95
28921;BME280;16035;53.594;9.952;2023-07-29T01:43:03;100526.56;;;18.84;75.90
28921;BME280;16035;53.594;9.952;2023-07-29T01:45:04;100531.78;;;18.85;75.97
28921;BME280;16035;53.594;9.952;2023-07-29T01:47:05;100533.38;;;18.86;76.14
28921;BME280;16035;53.594;9.952;2023-07-29T01:49:05;100537.28;;;18.85;75.97
28921;BME280;16035;53.594;9.952;2023-07-29T01:51:06;100549.09;;;18.86;76.22
28921;BME280;16035;53.594;9.952;2023-07-29T01:53:07;100536.47;;;18.85;76.34
28921;BME280;16035;53.594;9.952;2023-07-29T01:55:07;100525.44;;;18.85;76.39
28921;BME280;16035;53.594;9.952;2023-07-29T01:57:08;100533.06;;;18.88;76.72
28921;BME280;16035;53.594;9.952;2023-07-29T01:59:08;100530.97;;;18.93;76.69
28921;BME280;16035;53.594;9.952;2023-07-29T02:01:08;100526.13;;;18.99;77.01
28921;BME280;16035;53.594;9.952;2023-07-29T02:03:09;100519.13;;;19.02;77.01
28921;BME280;16035;53.594;9.952;2023-07-29T02:05:09;100523.19;;;19.04;77.04
28921;BME280;16035;53.594;9.952;2023-07-29T02:07:09;100523.19;;;19.04;77.17
28921;BME280;16035;53.594;9.952;2023-07-29T02:09:10;100527.25;;;19.07;77.07
28921;BME280;16035;53.594;9.952;2023-07-29T02:11:10;100509.59;;;19.08;77.43
28921;BME280;16035;53.594;9.952;2023-07-29T02:13:11;100509.44;;;19.13;77.36
28921;BME280;16035;53.594;9.952;2023-07-29T02:15:11;100500.03;;;19.14;77.34
28921;BME280;16035;53.594;9.952;2023-07-29T02:17:11;100500.34;;;19.21;77.33
28921;BME280;16035;53.594;9.952;2023-07-29T02:19:12;100494.69;;;19.26;77.48
28921;BME280;16035;53.594;9.952;2023-07-29T02:21:12;100492.41;;;19.28;77.60
28921;BME280;16035;53.594;9.952;2023-07-29T02:23:12;100487.72;;;19.29;77.59
28921;BME280;16035;53.594;9.952;2023-07-29T02:25:13;100489.81;;;19.32;77.67
28921;BME280;16035;53.594;9.952;2023-07-29T02:27:13;100492.38;;;19.37;78.01
28921;BME280;16035;53.594;9.952;2023-07-29T02:29:13;100500.00;;;19.40;78.02
28921;BME280;16035;53.594;9.952;2023-07-29T02:31:20;100495.13;;;19.45;77.76
28921;BME280;16035;53.594;9.952;2023-07-29T02:33:21;100490.75;;;19.44;77.94
28921;BME280;16035;53.594;9.952;2023-07-29T02:35:21;100499.03;;;19.44;78.04
28921;BME280;16035;53.594;9.952;2023-07-29T02:37:22;100486.06;;;19.45;78.10
28921;BME280;16035;53.594;9.952;2023-07-29T02:39:22;100492.38;;;19.45;78.27
28921;BME280;16035;53.594;9.952;2023-07-29T02:41:23;100489.31;;;19.47;78.55
28921;BME280;16035;53.594;9.952;2023-07-29T02:43:23;100480.25;;;19.47;78.42
28921;BME280;16035;53.594;9.952;2023-07-29T02:45:24;100480.72;;;19.49;78.46
28921;BME280;16035;53.594;9.952;2023-07-29T02:47:24;100479.25;;;19.51;78.65
28921;BME280;16035;53.594;9.952;2023-07-29T02:49:24;100485.25;;;19.53;78.39
28921;BME280;16035;53.594;9.952;2023-07-29T02:51:25;100486.03;;;19.54;78.29
28921;BME280;16035;53.594;9.952;2023-07-29T02:53:25;100486.84;;;19.54;78.64
28921;BME280;16035;53.594;9.952;2023-07-29T02:55:26;100482.50;;;19.53;78.66
28921;BME280;16035;53.594;9.952;2023-07-29T02:57:27;100488.00;;;19.53;78.61
28921;BME280;16035;53.594;9.952;2023-07-29T02:59:27;100479.38;;;19.55;78.94
28921;BME280;16035;53.594;9.952;2023-07-29T03:01:27;100478.28;;;19.56;78.81
28921;BME280;16035;53.594;9.952;2023-07-29T03:03:28;100471.28;;;19.58;78.79
28921;BME280;16035;53.594;9.952;2023-07-29T03:05:28;100476.19;;;19.61;78.75
28921;BME280;16035;53.594;9.952;2023-07-29T03:07:28;100481.03;;;19.64;78.79
28921;BME280;16035;53.594;9.952;2023-07-29T03:09:29;100477.00;;;19.62;78.79
28921;BME280;16035;53.594;9.952;2023-07-29T03:11:29;100481.69;;;19.61;78.76
28921;BME280;16035;53.594;9.952;2023-07-29T03:13:31;100480.88;;;19.61;78.76
28921;BME280;16035;53.594;9.952;2023-07-29T03:15:31;100476.47;;;19.60;79.04
28921;BME280;16035;53.594;9.952;2023-07-29T03:17:34;100480.34;;;19.59;79.06
28921;BME280;16035;53.594;9.952;2023-07-29T03:19:34;100477.44;;;19.55;79.02
28921;BME280;16035;53.594;9.952;2023-07-29T03:21:35;100483.28;;;19.54;78.95
28921;BME280;16035;53.594;9.952;2023-07-29T03:23:36;100474.56;;;19.52;79.13
28921;BME280;16035;53.594;9.952;2023-07-29T03:25:36;100478.13;;;19.52;79.15
28921;BME280;16035;53.594;9.952;2023-07-29T03:27:37;100469.50;;;19.54;79.16
28921;BME280;16035;53.594;9.952;2023-07-29T03:29:37;100470.66;;;19.53;78.94
28921;BME280;16035;53.594;9.952;2023-07-29T03:31:37;100474.88;;;19.50;79.08
28921;BME280;16035;53.594;9.952;2023-07-29T03:33:38;100477.97;;;19.49;78.97
28921;BME280;16035;53.594;9.952;2023-07-29T03:35:39;100484.91;;;19.46;79.29
28921;BME280;16035;53.594;9.952;2023-07-29T03:37:39;100478.94;;;19.44;79.08
28921;BME280;16035;53.594;9.952;2023-07-29T03:39:39;100488.81;;;19.45;79.16
28921;BME280;16035;53.594;9.952;2023-07-29T03:41:40;100484.91;;;19.46;79.22
28921;BME280;16035;53.594;9.952;2023-07-29T03:43:40;100486.06;;;19.45;79.23
28921;BME280;16035;53.594;9.952;2023-07-29T03:45:40;100486.06;;;19.45;79.56
28921;BME280;16035;53.594;9.952;2023-07-29T03:47:41;100482.84;;;19.43;79.54
28921;BME280;16035;53.594;9.952;2023-07-29T03:49:41;100481.69;;;19.44;79.56
28921;BME280;16035;53.594;9.952;2023-07-29T03:51:41;100483.31;;;19.45;79.50
28921;BME280;16035;53.594;9.952;2023-07-29T03:53:42;100481.34;;;19.45;79.55
28921;BME280;16035;53.594;9.952;2023-07-29T03:55:42;100477.16;;;19.48;79.83
28921;BME280;16035;53.594;9.952;2023-07-29T03:57:43;100480.72;;;19.49;79.65
28921;BME280;16035;53.594;9.952;2023-07-29T03:59:43;100473.59;;;19.48;79.73
28921;BME280;16035;53.594;9.952;2023-07-29T04:01:44;100474.72;;;19.47;79.67
28921;BME280;16035;53.594;9.952;2023-07-29T04:03:45;100474.72;;;19.47;79.76
28921;BME280;16035;53.594;9.952;2023-07-29T04:05:48;100476.00;;;19.49;79.82
28921;BME280;16035;53.594;9.952;2023-07-29T04:07:48;100478.75;;;19.49;79.95
28921;BME280;16035;53.594;9.952;2023-07-29T04:09:49;100472.44;;;19.49;79.82
28921;BME280;16035;53.594;9.952;2023-07-29T04:11:50;100474.56;;;19.52;79.95
28921;BME280;16035;53.594;9.952;2023-07-29T04:13:51;100475.38;;;19.52;79.85
28921;BME280;16035;53.594;9.952;2023-07-29T04:15:51;100474.22;;;19.53;79.94
28921;BME280;16035;53.594;9.952;2023-07-29T04:17:51;100483.28;;;19.54;80.09
28921;BME280;16035;53.594;9.952;2023-07-29T04:19:52;100473.41;;;19.53;79.96
28921;BME280;16035;53.594;9.952;2023-07-29T04:21:52;100479.25;;;19.51;79.94
28921;BME280;16035;53.594;9.952;2023-07-29T04:23:52;100485.56;;;19.52;80.17
28921;BME280;16035;53.594;9.952;2023-07-29T04:25:53;100480.88;;;19.52;80.31
28921;BME280;16035;53.594;9.952;2023-07-29T04:27:53;100481.03;;;19.56;80.26
28921;BME280;16035;53.594;9.952;2023-07-29T04:29:54;100482.94;;;19.55;80.19
28921;BME280;16035;53.594;9.952;2023-07-29T04:31:54;100481.03;;;19.56;80.25
28921;BME280;16035;53.594;9.952;2023-07-29T04:33:55;100477.13;;;19.57;80.27
28921;BME280;16035;53.594;9.952;2023-07-29T04:35:55;100477.59;;;19.59;80.01
28921;BME280;16035;53.594;9.952;2023-07-29T04:37:55;100476.47;;;19.60;80.26
28921;BME280;16035;53.594;9.952;2023-07-29T04:39:56;100475.66;;;19.59;80.31
28921;BME280;16035;53.594;9.952;2023-07-29T04:41:56;100474.84;;;19.59;80.22
28921;BME280;16035;53.594;9.952;2023-07-29T04:43:57;100467.91;;;19.61;80.51
28921;BME280;16035;53.594;9.952;2023-07-29T04:45:57;100481.34;;;19.63;80.27
28921;BME280;16035;53.594;9.952;2023-07-29T04:47:58;100471.13;;;19.63;80.36
28921;BME280;16035;53.594;9.952;2023-07-29T04:49:58;100475.53;;;19.64;80.28
28921;BME280;16035;53.594;9.952;2023-07-29T04:51:59;100460.91;;;19.64;80.52
28921;BME280;16035;53.594;9.952;2023-07-29T04:53:59;100468.06;;;19.65;80.47
28921;BME280;16035;53.594;9.952;2023-07-29T04:56:00;100455.75;;;19.62;80.38
28921;BME280;16035;53.594;9.952;2023-07-29T04:58:01;100463.66;;;19.64;80.45
28921;BME280;16035;53.594;9.952;2023-07-29T05:00:02;100465.31;;;19.65;80.57
28921;BME280;16035;53.594;9.952;2023-07-29T05:02:03;100459.47;;;19.66;80.40
28921;BME280;16035;53.594;9.952;2023-07-29T05:04:03;100467.72;;;19.66;80.56
28921;BME280;16035;53.594;9.952;2023-07-29T05:06:04;100466.28;;;19.69;80.62
28921;BME280;16035;53.594;9.952;2023-07-29T05:08:04;100471.44;;;19.71;80.30
28921;BME280;16035;53.594;9.952;2023-07-29T05:10:05;100462.69;;;19.68;80.64
28921;BME280;16035;53.594;9.952;2023-07-29T05:12:06;100466.59;;;19.67;80.71
28921;BME280;16035;53.594;9.952;2023-07-29T05:14:06;100462.69;;;19.68;80.75
28921;BME280;16035;53.594;9.952;2023-07-29T05:16:07;100463.81;;;19.67;80.80
28921;BME280;16035;53.594;9.952;2023-07-29T05:18:07;100463.19;;;19.71;80.73
28921;BME280;16035;53.594;9.952;2023-07-29T05:20:08;100453.91;;;19.75;80.79
28921;BME280;16035;53.594;9.952;2023-07-29T05:22:09;100451.13;;;19.84;80.99
28921;BME280;16035;53.594;9.952;2023-07-29T05:24:10;100458.88;;;19.90;80.89
28921;BME280;16035;53.594;9.952;2023-07-29T05:26:10;100464.09;;;19.92;80.53
28921;BME280;16035;53.594;9.952;2023-07-29T05:28:11;100466.03;;;19.91;80.81
28921;BME280;16035;53.594;9.952;2023-07-29T05:30:11;100470.41;;;19.92;80.71
28921;BME280;16035;53.594;9.952;2023-07-29T05:32:11;100469.59;;;19.92;80.95
28921;BME280;16035;53.594;9.952;2023-07-29T05:34:12;100470.56;;;19.96;80.90
28921;BME280;16035;53.594;9.952;2023-07-29T05:36:12;100466.00;;;20.00;80.61
28921;BME280;16035;53.594;9.952;2023-07-29T05:38:12;100464.66;;;20.06;80.72
28921;BME280;16035;53.594;9.952;2023-07-29T05:40:13;100455.75;;;20.09;80.80
28921;BME280;16035;53.594;9.952;2023-07-29T05:42:13;100458.63;;;20.13;80.74
28921;BME280;16035;53.594;9.952;2023-07-29T05:44:13;100454.59;;;20.10;80.41
28921;BME280;16035;53.594;9.952;2023-07-29T05:46:14;100465.63;;;20.10;80.62
28921;BME280;16035;53.594;9.952;2023-07-29T05:48:14;100460.91;;;20.11;80.65
28921;BME280;16035;53.594;9.952;2023-07-29T05:50:14;100460.56;;;20.12;80.71
28921;BME280;16035;53.594;9.952;2023-07-29T05:52:15;100452.63;;;20.11;80.69
28921;BME280;16035;53.594;9.952;2023-07-29T05:54:17;100456.19;;;20.11;80.70
28921;BME280;16035;53.594;9.952;2023-07-29T05:56:17;100459.63;;;20.08;80.67
28921;BME280;16035;53.594;9.952;2023-07-29T05:58:18;100459.97;;;20.07;80.89
28921;BME280;16035;53.594;9.952;2023-07-29T06:00:18;100455.91;;;20.04;80.93
28921;BME280;16035;53.594;9.952;2023-07-29T06:02:19;100466.94;;;20.04;80.88
28921;BME280;16035;53.594;9.952;2023-07-29T06:04:19;100465.66;;;20.02;80.85
28921;BME280;16035;53.594;9.952;2023-07-29T06:06:19;100464.84;;;20.01;81.05
28921;BME280;16035;53.594;9.952;2023-07-29T06:08:19;100461.75;;;20.03;80.90
28921;BME280;16035;53.594;9.952;2023-07-29T06:10:20;100460.28;;;20.05;81.02
28921;BME280;16035;53.594;9.952;2023-07-29T06:12:20;100460.75;;;20.07;80.97
28921;BME280;16035;53.594;9.952;2023-07-29T06:14:21;100450.22;;;20.09;81.14
28921;BME280;16035;53.594;9.952;2023-07-29T06:16:21;100449.69;;;20.16;80.85
28921;BME280;16035;53.594;9.952;2023-07-29T06:18:21;100450.63;;;20.20;81.01
28921;BME280;16035;53.594;9.952;2023-07-29T06:20:22;100450.09;;;20.27;81.24
28921;BME280;16035;53.594;9.952;2023-07-29T06:22:22;100451.88;;;20.31;81.04
28921;BME280;16035;53.594;9.952;2023-07-29T06:24:22;100444.41;;;20.32;80.78
28921;BME280;16035;53.594;9.952;2023-07-29T06:26:22;100440.50;;;20.33;80.70
28921;BME280;16035;53.594;9.952;2023-07-29T06:28:23;100454.63;;;20.31;80.72
28921;BME280;16035;53.594;9.952;2023-07-29T06:30:23;100436.44;;;20.30;80.74
28921;BME280;16035;53.594;9.952;2023-07-29T06:32:23;100436.16;;;20.32;80.85
28921;BME280;16035;53.594;9.952;2023-07-29T06:34:24;100442.13;;;20.34;80.96
28921;BME280;16035;53.594;9.952;2023-07-29T06:36:24;100438.56;;;20.33;80.95
28921;BME280;16035;53.594;9.952;2023-07-29T06:38:24;100435.44;;;20.35;80.90
28921;BME280;16035;53.594;9.952;2023-07-29T06:40:25;100429.13;;;20.34;80.90
28921;BME280;16035;53.594;9.952;2023-07-29T06:42:25;100423.97;;;20.33;80.87
28921;BME280;16035;53.594;9.952;2023-07-29T06:44:25;100431.09;;;20.34;80.92
28921;BME280;16035;53.594;9.952;2023-07-29T06:46:26;100430.75;;;20.35;80.91
28921;BME280;16035;53.594;9.952;2023-07-29T06:48:26;100432.38;;;20.36;80.94
28921;BME280;16035;53.594;9.952;2023-07-29T06:50:26;100434.00;;;20.37;80.93
28921;BME280;16035;53.594;9.952;2023-07-29T06:52:27;100434.78;;;20.38;80.79
28921;BME280;16035;53.594;9.952;2023-07-29T06:54:27;100436.25;;;20.35;80.63
28921;BME280;16035;53.594;9.952;2023-07-29T06:56:27;100428.31;;;20.34;80.74
28921;BME280;16035;53.594;9.952;2023-07-29T06:58:28;100432.53;;;20.31;80.97
28921;BME280;16035;53.594;9.952;2023-07-29T07:00:28;100447.34;;;20.27;80.78
28921;BME280;16035;53.594;9.952;2023-07-29T07:02:28;100451.25;;;20.26;80.99
28921;BME280;16035;53.594;9.952;2023-07-29T07:04:29;100432.13;;;20.20;81.02
28921;BME280;16035;53.594;9.952;2023-07-29T07:06:29;100438.31;;;20.17;81.27
28921;BME280;16035;53.594;9.952;2023-07-29T07:08:30;100451.63;;;20.15;81.55
28921;BME280;16035;53.594;9.952;2023-07-29T07:10:31;100454.88;;;20.17;81.50
28921;BME280;16035;53.594;9.952;2023-07-29T07:12:33;100460.38;;;20.17;81.57
28921;BME280;16035;53.594;9.952;2023-07-29T07:14:34;100461.53;;;20.16;81.42
28921;BME280;16035;53.594;9.952;2023-07-29T07:16:34;100453.59;;;20.15;81.48
28921;BME280;16035;53.594;9.952;2023-07-29T07:18:36;100450.84;;;20.15;81.53
28921;BME280;16035;53.594;9.952;2023-07-29T07:20:37;100454.41;;;20.15;81.45
28921;BME280;16035;53.594;9.952;2023-07-29T07:22:37;100457.31;;;20.19;81.60
28921;BME280;16035;53.594;9.952;2023-07-29T07:24:37;100454.22;;;20.20;81.57
28921;BME280;16035;53.594;9.952;2023-07-29T07:26:38;100457.47;;;20.23;81.44
28921;BME280;16035;53.594;9.952;2023-07-29T07:28:38;100455.81;;;20.22;81.61
28921;BME280;16035;53.594;9.952;2023-07-29T07:30:41;100459.72;;;20.20;81.67
28921;BME280;16035;53.594;9.952;2023-07-29T07:32:42;100467.53;;;20.18;81.33
28921;BME280;16035;53.594;9.952;2023-07-29T07:34:42;100446.94;;;20.16;81.62
28921;BME280;16035;53.594;9.952;2023-07-29T07:36:42;100455.22;;;20.16;81.89
28921;BME280;16035;53.594;9.952;2023-07-29T07:38:42;100447.72;;;20.16;81.83
28921;BME280;16035;53.594;9.952;2023-07-29T07:40:52;100451.63;;;20.15;81.75
28921;BME280;16035;53.594;9.952;2023-07-29T07:42:53;100443.38;;;20.15;81.86
28921;BME280;16035;53.594;9.952;2023-07-29T07:46:53;100451.50;;;20.12;81.84
28921;BME280;16035;53.594;9.952;2023-07-29T07:48:54;100448.28;;;20.10;81.90
28921;BME280;16035;53.594;9.952;2023-07-29T07:50:54;100455.75;;;20.09;82.19
28921;BME280;16035;53.594;9.952;2023-07-29T07:52:55;100444.03;;;20.12;82.23
28921;BME280;16035;53.594;9.952;2023-07-29T07:54:55;100450.50;;;20.16;82.30
28921;BME280;16035;53.594;9.952;2023-07-29T07:56:55;100446.72;;;20.21;82.25
28921;BME280;16035;53.594;9.952;2023-07-29T07:58:56;100450.31;;;20.22;82.19
28921;BME280;16035;53.594;9.952;2023-07-29T08:01:06;100446.41;;;20.23;82.27
28921;BME280;16035;53.594;9.952;2023-07-29T08:03:07;100450.78;;;20.24;82.25
28921;BME280;16035;53.594;9.952;2023-07-29T08:05:07;100442.50;;;20.24;82.09
28921;BME280;16035;53.594;9.952;2023-07-29T08:07:08;100446.72;;;20.21;82.32
28921;BME280;16035;53.594;9.952;2023-07-29T08:09:08;100443.97;;;20.21;82.21
28921;BME280;16035;53.594;9.952;2023-07-29T08:11:09;100434.56;;;20.22;82.56
28921;BME280;16035;53.594;9.952;2023-07-29T08:13:09;100434.69;;;20.26;82.59
28921;BME280;16035;53.594;9.952;2023-07-29T08:15:09;100446.22;;;20.28;82.38
28921;BME280;16035;53.594;9.952;2023-07-29T08:17:10;100441.16;;;20.30;82.18
28921;BME280;16035;53.594;9.952;2023-07-29T08:19:10;100439.72;;;20.32;82.60
28921;BME280;16035;53.594;9.952;2023-07-29T08:21:10;100447.28;;;20.35;82.40
28921;BME280;16035;53.594;9.952;2023-07-29T08:23:11;100436.75;;;20.37;82.25
28921;BME280;16035;53.594;9.952;2023-07-29T08:25:11;100443.88;;;20.38;82.26
28921;BME280;16035;53.594;9.952;2023-07-29T08:27:11;100435.94;;;20.37;82.28
28921;BME280;16035;53.594;9.952;2023-07-29T08:29:12;100437.75;;;20.33;82.15
28921;BME280;16035;53.594;9.952;2023-07-29T08:31:12;100447.63;;;20.34;82.40
28921;BME280;16035;53.594;9.952;2023-07-29T08:33:12;100439.38;;;20.34;82.32
28921;BME280;16035;53.594;9.952;2023-07-29T08:35:13;100445.38;;;20.36;82.57
28921;BME280;16035;53.594;9.952;2023-07-29T08:37:13;100446.28;;;20.40;82.54
28921;BME280;16035;53.594;9.952;2023-07-29T08:39:13;100447.94;;;20.41;82.46
28921;BME280;16035;53.594;9.952;2023-07-29T08:41:15;100442.41;;;20.41;82.33
28921;BME280;16035;53.594;9.952;2023-07-29T08:43:19;100447.25;;;20.44;82.55
28921;BME280;16035;53.594;9.952;2023-07-29T08:45:19;100455.69;;;20.48;82.56
28921;BME280;16035;53.594;9.952;2023-07-29T08:47:20;100457.47;;;20.52;82.65
28921;BME280;16035;53.594;9.952;2023-07-29T08:49:21;100452.22;;;20.59;82.74
28921;BME280;16035;53.594;9.952;2023-07-29T08:51:23;100449.06;;;20.69;82.70
28921;BME280;16035;53.594;9.952;2023-07-29T08:53:25;100456.47;;;20.78;82.55
28921;BME280;16035;53.594;9.952;2023-07-29T08:55:27;100457.88;;;20.84;82.48
28921;BME280;16035;53.594;9.952;2023-07-29T08:57:28;100452.03;;;20.85;82.23
28921;BME280;16035;53.594;9.952;2023-07-29T08:59:31;100456.28;;;20.83;82.02
28921;BME280;16035;53.594;9.952;2023-07-29T09:01:32;100466.84;;;20.81;82.21
28921;BME280;16035;53.594;9.952;2023-07-29T09:03:32;100456.28;;;20.83;82.19
28921;BME280;16035;53.594;9.952;2023-07-29T09:05:34;100458.81;;;20.88;82.32
28921;BME280;16035;53.594;9.952;2023-07-29T09:07:36;100458.53;;;21.02;82.41
28921;BME280;16035;53.594;9.952;2023-07-29T09:09:37;100447.91;;;21.12;82.50
28921;BME280;16035;53.594;9.952;2023-07-29T09:11:37;100450.91;;;21.19;82.19
28921;BME280;16035;53.594;9.952;2023-07-29T09:13:37;100439.78;;;21.28;82.17
28921;BME280;16035;53.594;9.952;2023-07-29T09:15:37;100436.50;;;21.35;81.98
28921;BME280;16035;53.594;9.952;2023-07-29T09:17:40;100430.75;;;21.40;81.77
28921;BME280;16035;53.594;9.952;2023-07-29T09:19:41;100431.22;;;21.42;81.75
28921;BME280;16035;53.594;9.952;2023-07-29T09:21:42;100433.16;;;21.41;81.58
28921;BME280;16035;53.594;9.952;2023-07-29T09:23:43;100434.66;;;21.39;81.38
28921;BME280;16035;53.594;9.952;2023-07-29T09:25:46;100438.25;;;21.39;81.53
28921;BME280;16035;53.594;9.952;2023-07-29T09:27:46;100437.66;;;21.46;81.70
28921;BME280;16035;53.594;9.952;2023-07-29T09:29:47;100444.94;;;21.51;81.61
28921;BME280;16035;53.594;9.952;2023-07-29T09:31:47;100438.63;;;21.62;81.95
28921;BME280;16035;53.594;9.952;2023-07-29T09:33:47;100439.78;;;21.74;81.63
28921;BME280;16035;53.594;9.952;2023-07-29T09:35:48;100420.09;;;21.87;81.78
28921;BME280;16035;53.594;9.952;2023-07-29T09:37:50;100414.25;;;22.01;81.33
28921;BME280;16035;53.594;9.952;2023-07-29T09:39:51;100411.97;;;22.15;80.45
28921;BME280;16035;53.594;9.952;2023-07-29T09:41:51;100414.38;;;22.29;80.68
28921;BME280;16035;53.594;9.952;2023-07-29T09:43:57;100415.63;;;22.84;80.86
28921;BME280;16035;53.594;9.952;2023-07-29T09:46:04;100413.13;;;23.51;80.23
28921;BME280;16035;53.594;9.952;2023-07-29T09:48:05;100404.78;;;24.30;79.18
28921;BME280;16035;53.594;9.952;2023-07-29T09:50:09;100399.22;;;25.04;77.52
28921;BME280;16035;53.594;9.952;2023-07-29T09:52:10;100413.06;;;25.20;76.15
28921;BME280;16035;53.594;9.952;2023-07-29T09:54:10;100413.41;;;25.61;74.91
28921;BME280;16035;53.594;9.952;2023-07-29T09:56:13;100400.34;;;26.11;74.25
28921;BME280;16035;53.594;9.952;2023-07-29T09:58:13;100395.94;;;26.36;72.92
28921;BME280;16035;53.594;9.952;2023-07-29T10:00:14;100399.19;;;26.68;72.24
28921;BME280;16035;53.594;9.952;2023-07-29T10:02:16;100397.06;;;26.92;70.84
28921;BME280;16035;53.594;9.952;2023-07-29T10:04:17;100391.69;;;27.06;70.05
28921;BME280;16035;53.594;9.952;2023-07-29T10:06:17;100401.84;;;26.88;70.02
28921;BME280;16035;53.594;9.952;2023-07-29T10:08:18;100404.25;;;26.33;68.61
28921;BME280;16035;53.594;9.952;2023-07-29T10:10:19;100404.84;;;26.19;69.65
28921;BME280;16035;53.594;9.952;2023-07-29T10:12:21;100407.56;;;26.15;69.77
28921;BME280;16035;53.594;9.952;2023-07-29T10:14:22;100397.31;;;26.76;70.18
28921;BME280;16035;53.594;9.952;2023-07-29T10:16:24;100409.84;;;27.27;69.18
28921;BME280;16035;53.594;9.952;2023-07-29T10:18:25;100400.56;;;27.53;67.24
28921;BME280;16035;53.594;9.952;2023-07-29T10:20:26;100403.00;;;27.58;66.64
28921;BME280;16035;53.594;9.952;2023-07-29T10:22:28;100410.97;;;27.18;66.07
28921;BME280;16035;53.594;9.952;2023-07-29T10:24:33;100399.34;;;26.83;66.22
28921;BME280;16035;53.594;9.952;2023-07-29T10:26:33;100404.56;;;26.28;66.83
28921;BME280;16035;53.594;9.952;2023-07-29T10:28:38;100408.88;;;25.76;66.99
28921;BME280;16035;53.594;9.952;2023-07-29T10:30:39;100414.75;;;25.25;68.28
28921;BME280;16035;53.594;9.952;2023-07-29T10:32:43;100403.28;;;24.87;68.82
28921;BME280;16035;53.594;9.952;2023-07-29T10:34:47;100402.94;;;24.54;69.43
28921;BME280;16035;53.594;9.952;2023-07-29T10:36:48;100409.72;;;24.21;69.89